Terminal Aerodrome Forecast
Issued by NWS

Home | Current Version | Previous Version | Text Only | Print | Product List | Glossary On
Versions: 1 2 3 4 5 6 7 8 9 10 11 12
000
FTUS42 KMLB 252330
TAFISM
TAF
KISM 252330Z 2600/2624 10013KT P6SM FEW035 SCT100 BKN250
     FM260400 10005KT P6SM SKC
     FM261400 11011KT P6SM FEW025
     FM261900 10014G22KT P6SM SCT030 BKN060
      AMD NOT SKED 2603/2612=

USA.gov is the U.S. government's official web portal to all federal, state and local government web resources and services.